sensor_id;sensor_type;location;lat;lon;timestamp;pressure;altitude;pressure_sealevel;temperature;humidity
60427;BME280;46274;47.168;27.604;2023-02-03T00:03:46;99616.28;;;2.06;73.46
60427;BME280;46274;47.168;27.604;2023-02-03T00:10:19;99688.41;;;2.57;73.21
60427;BME280;46274;47.168;27.604;2023-02-03T00:16:29;99659.63;;;2.40;73.14
60427;BME280;46274;47.168;27.604;2023-02-03T00:22:38;99773.88;;;2.99;73.23
60427;BME280;46274;47.168;27.604;2023-02-03T00:28:41;99783.22;;;3.05;73.00
60427;BME280;46274;47.168;27.604;2023-02-03T00:34:50;99682.16;;;2.47;72.55
60427;BME280;46274;47.168;27.604;2023-02-03T00:41:04;99728.28;;;2.70;72.79
60427;BME280;46274;47.168;27.604;2023-02-03T00:47:35;99786.56;;;2.97;73.15
60427;BME280;46274;47.168;27.604;2023-02-03T00:53:41;99462.91;;;0.95;73.03
60427;BME280;46274;47.168;27.604;2023-02-03T00:59:43;99698.22;;;2.47;73.00
60427;BME280;46274;47.168;27.604;2023-02-03T01:06:20;99795.56;;;2.96;73.23
60427;BME280;46274;47.168;27.604;2023-02-03T01:12:50;99795.28;;;2.99;73.03
60427;BME280;46274;47.168;27.604;2023-02-03T01:18:56;99807.38;;;2.94;73.10
60427;BME280;46274;47.168;27.604;2023-02-03T01:24:59;99651.03;;;2.06;72.53
60427;BME280;46274;47.168;27.604;2023-02-03T01:37:16;99747.63;;;2.74;70.94
60427;BME280;46274;47.168;27.604;2023-02-03T01:43:42;99819.88;;;3.14;70.61
60427;BME280;46274;47.168;27.604;2023-02-03T01:50:14;99827.78;;;3.16;70.02
60427;BME280;46274;47.168;27.604;2023-02-03T01:56:20;99726.38;;;2.51;70.10
60427;BME280;46274;47.168;27.604;2023-02-03T02:02:28;99757.59;;;2.72;69.70
60427;BME280;46274;47.168;27.604;2023-02-03T02:08:44;99752.84;;;2.54;69.86
60427;BME280;46274;47.168;27.604;2023-02-03T02:14:48;99857.75;;;3.10;70.12
60427;BME280;46274;47.168;27.604;2023-02-03T02:21:15;99856.63;;;3.12;69.36
60427;BME280;46274;47.168;27.604;2023-02-03T02:33:52;99810.16;;;2.82;69.42
60427;BME280;46274;47.168;27.604;2023-02-03T02:46:45;99674.63;;;1.80;69.09
60427;BME280;46274;47.168;27.604;2023-02-03T02:53:19;99708.06;;;1.95;69.64
60427;BME280;46274;47.168;27.604;2023-02-03T02:59:43;99847.56;;;2.73;69.77
60427;BME280;46274;47.168;27.604;2023-02-03T03:06:02;99900.09;;;2.95;69.78
60427;BME280;46274;47.168;27.604;2023-02-03T03:12:20;99912.88;;;2.91;69.84
60427;BME280;46274;47.168;27.604;2023-02-03T03:18:39;99933.03;;;2.95;69.29
60427;BME280;46274;47.168;27.604;2023-02-03T03:24:59;99936.69;;;2.94;68.81
60427;BME280;46274;47.168;27.604;2023-02-03T03:31:12;99620.66;;;0.91;68.13
60427;BME280;46274;47.168;27.604;2023-02-03T03:37:33;99858.97;;;2.33;67.98
60427;BME280;46274;47.168;27.604;2023-02-03T03:43:42;99851.47;;;2.27;67.56
60427;BME280;46274;47.168;27.604;2023-02-03T03:49:52;99950.41;;;2.80;67.45
60427;BME280;46274;47.168;27.604;2023-02-03T03:56:10;99965.59;;;2.79;67.29
60427;BME280;46274;47.168;27.604;2023-02-03T04:02:22;99958.72;;;2.66;66.97
60427;BME280;46274;47.168;27.604;2023-02-03T04:08:29;99973.75;;;2.78;67.33
60427;BME280;46274;47.168;27.604;2023-02-03T04:14:35;99955.59;;;2.60;66.85
60427;BME280;46274;47.168;27.604;2023-02-03T04:20:57;99977.59;;;2.64;66.80
60427;BME280;46274;47.168;27.604;2023-02-03T04:27:10;99971.31;;;2.54;67.25
60427;BME280;46274;47.168;27.604;2023-02-03T04:33:23;99962.72;;;2.39;67.46
60427;BME280;46274;47.168;27.604;2023-02-03T04:39:31;100008.13;;;2.61;67.04
60427;BME280;46274;47.168;27.604;2023-02-03T04:45:42;99952.81;;;2.30;67.01
60427;BME280;46274;47.168;27.604;2023-02-03T04:52:04;100006.19;;;2.52;66.95
60427;BME280;46274;47.168;27.604;2023-02-03T04:58:22;99943.13;;;2.17;66.73
60427;BME280;46274;47.168;27.604;2023-02-03T05:04:32;99990.34;;;2.28;66.40
60427;BME280;46274;47.168;27.604;2023-02-03T05:10:34;100008.28;;;2.37;67.06
60427;BME280;46274;47.168;27.604;2023-02-03T05:16:42;99952.75;;;1.98;66.67
60427;BME280;46274;47.168;27.604;2023-02-03T05:22:56;100059.09;;;2.49;67.28
60427;BME280;46274;47.168;27.604;2023-02-03T05:29:05;99770.50;;;0.84;67.21
60427;BME280;46274;47.168;27.604;2023-02-03T05:35:07;100051.34;;;2.34;67.73
60427;BME280;46274;47.168;27.604;2023-02-03T05:41:23;99863.00;;;0.95;68.05
60427;BME280;46274;47.168;27.604;2023-02-03T05:47:47;100076.41;;;2.00;68.70
60427;BME280;46274;47.168;27.604;2023-02-03T05:53:52;100109.41;;;1.99;68.81
60427;BME280;46274;47.168;27.604;2023-02-03T06:00:16;100106.75;;;1.99;68.25
60427;BME280;46274;47.168;27.604;2023-02-03T06:06:21;100120.69;;;1.68;69.37
60427;BME280;46274;47.168;27.604;2023-02-03T06:12:24;99978.88;;;0.80;69.32
60427;BME280;46274;47.168;27.604;2023-02-03T06:18:29;100100.34;;;1.32;69.64
60427;BME280;46274;47.168;27.604;2023-02-03T06:24:31;100147.34;;;1.57;69.58
60427;BME280;46274;47.168;27.604;2023-02-03T06:30:33;100031.72;;;1.10;69.23
60427;BME280;46274;47.168;27.604;2023-02-03T06:36:50;100154.97;;;1.97;68.63
60427;BME280;46274;47.168;27.604;2023-02-03T06:42:56;100143.09;;;2.24;68.40
60427;BME280;46274;47.168;27.604;2023-02-03T06:48:59;100145.25;;;2.52;67.72
60427;BME280;46274;47.168;27.604;2023-02-03T06:55:02;100138.72;;;2.56;66.99
60427;BME280;46274;47.168;27.604;2023-02-03T07:01:04;100145.50;;;2.72;66.38
60427;BME280;46274;47.168;27.604;2023-02-03T07:07:14;100170.06;;;2.77;64.99
60427;BME280;46274;47.168;27.604;2023-02-03T07:13:28;100063.38;;;2.06;65.97
60427;BME280;46274;47.168;27.604;2023-02-03T07:19:41;100052.09;;;2.03;65.31
60427;BME280;46274;47.168;27.604;2023-02-03T07:26:01;100188.78;;;2.77;66.14
60427;BME280;46274;47.168;27.604;2023-02-03T07:32:33;100164.34;;;2.48;67.39
60427;BME280;46274;47.168;27.604;2023-02-03T07:38:41;100136.25;;;2.65;68.12
60427;BME280;46274;47.168;27.604;2023-02-03T07:44:44;100133.69;;;3.18;67.77
60427;BME280;46274;47.168;27.604;2023-02-03T07:50:52;100155.31;;;3.26;64.49
60427;BME280;46274;47.168;27.604;2023-02-03T07:56:57;100083.66;;;2.86;63.42
60427;BME280;46274;47.168;27.604;2023-02-03T08:03:26;100137.63;;;3.02;62.56
60427;BME280;46274;47.168;27.604;2023-02-03T08:09:35;100140.72;;;3.19;63.19
60427;BME280;46274;47.168;27.604;2023-02-03T08:15:46;100166.47;;;3.84;63.39
60427;BME280;46274;47.168;27.604;2023-02-03T08:21:54;100187.88;;;3.42;61.65
60427;BME280;46274;47.168;27.604;2023-02-03T08:28:00;100142.44;;;2.76;60.97
60427;BME280;46274;47.168;27.604;2023-02-03T08:34:24;100178.81;;;3.55;60.54
60427;BME280;46274;47.168;27.604;2023-02-03T08:40:31;100161.78;;;3.98;60.41
60427;BME280;46274;47.168;27.604;2023-02-03T08:46:52;99912.13;;;2.47;58.76
60427;BME280;46274;47.168;27.604;2023-02-03T08:53:03;100199.56;;;3.94;58.44
60427;BME280;46274;47.168;27.604;2023-02-03T08:59:28;100020.44;;;2.85;57.20
60427;BME280;46274;47.168;27.604;2023-02-03T09:05:38;100033.63;;;3.40;56.55
60427;BME280;46274;47.168;27.604;2023-02-03T09:11:54;100086.28;;;3.30;56.25
60427;BME280;46274;47.168;27.604;2023-02-03T09:18:11;100117.28;;;3.64;55.93
60427;BME280;46274;47.168;27.604;2023-02-03T09:24:21;100203.00;;;4.27;53.05
60427;BME280;46274;47.168;27.604;2023-02-03T09:30:34;100192.78;;;4.42;52.74
60427;BME280;46274;47.168;27.604;2023-02-03T09:36:59;100206.88;;;4.65;52.09
60427;BME280;46274;47.168;27.604;2023-02-03T09:43:22;100201.84;;;4.51;51.00
60427;BME280;46274;47.168;27.604;2023-02-03T09:56:43;100050.81;;;3.37;51.78
60427;BME280;46274;47.168;27.604;2023-02-03T10:03:45;100182.09;;;3.79;54.19
60427;BME280;46274;47.168;27.604;2023-02-03T10:22:58;100140.25;;;4.09;52.62
60427;BME280;46274;47.168;27.604;2023-02-03T10:29:42;100146.44;;;4.09;52.14
60427;BME280;46274;47.168;27.604;2023-02-03T10:42:26;99909.91;;;2.94;48.76
60427;BME280;46274;47.168;27.604;2023-02-03T10:49:07;100147.00;;;4.74;49.20
60427;BME280;46274;47.168;27.604;2023-02-03T11:01:46;100146.03;;;4.85;49.79
60427;BME280;46274;47.168;27.604;2023-02-03T11:07:53;100043.50;;;3.39;49.94
60427;BME280;46274;47.168;27.604;2023-02-03T11:20:14;100128.16;;;2.98;50.37
60427;BME280;46274;47.168;27.604;2023-02-03T11:27:13;100123.09;;;3.48;50.79
60427;BME280;46274;47.168;27.604;2023-02-03T11:33:40;100147.97;;;3.60;50.45
60427;BME280;46274;47.168;27.604;2023-02-03T11:39:48;100147.25;;;3.58;50.47
60427;BME280;46274;47.168;27.604;2023-02-03T11:46:02;100134.13;;;4.28;49.37
60427;BME280;46274;47.168;27.604;2023-02-03T11:58:42;100077.03;;;3.55;49.59
60427;BME280;46274;47.168;27.604;2023-02-03T12:05:19;100120.03;;;3.21;49.68
60427;BME280;46274;47.168;27.604;2023-02-03T12:24:11;100112.13;;;3.52;48.67
60427;BME280;46274;47.168;27.604;2023-02-03T12:30:45;100099.91;;;3.05;49.83
60427;BME280;46274;47.168;27.604;2023-02-03T12:36:58;100080.00;;;3.61;49.84
60427;BME280;46274;47.168;27.604;2023-02-03T12:50:13;100037.16;;;3.19;48.85
60427;BME280;46274;47.168;27.604;2023-02-03T12:56:11;100055.25;;;3.27;49.26
60427;BME280;46274;47.168;27.604;2023-02-03T13:02:22;100080.94;;;3.30;50.46
60427;BME280;46274;47.168;27.604;2023-02-03T13:08:49;100040.22;;;3.15;50.36
60427;BME280;46274;47.168;27.604;2023-02-03T13:14:54;100071.06;;;3.30;49.95
60427;BME280;46274;47.168;27.604;2023-02-03T13:20:59;99859.81;;;2.12;49.95
60427;BME280;46274;47.168;27.604;2023-02-03T13:27:29;100042.41;;;3.21;50.26
60427;BME280;46274;47.168;27.604;2023-02-03T13:33:56;100025.38;;;2.69;48.86
60427;BME280;46274;47.168;27.604;2023-02-03T13:46:25;100012.38;;;2.53;50.32
60427;BME280;46274;47.168;27.604;2023-02-03T13:52:38;99953.25;;;2.67;49.85
60427;BME280;46274;47.168;27.604;2023-02-03T14:05:46;99991.59;;;2.56;50.06
60427;BME280;46274;47.168;27.604;2023-02-03T14:12:18;99985.47;;;2.66;51.06
60427;BME280;46274;47.168;27.604;2023-02-03T14:18:52;99983.22;;;2.61;50.26
60427;BME280;46274;47.168;27.604;2023-02-03T14:24:57;99976.97;;;2.60;50.00
60427;BME280;46274;47.168;27.604;2023-02-03T14:37:39;99759.88;;;2.46;50.50
60427;BME280;46274;47.168;27.604;2023-02-03T14:44:27;99812.44;;;2.87;51.06
60427;BME280;46274;47.168;27.604;2023-02-03T15:03:37;99942.47;;;3.41;51.01
60427;BME280;46274;47.168;27.604;2023-02-03T15:09:58;99917.97;;;3.15;51.77
60427;BME280;46274;47.168;27.604;2023-02-03T15:16:09;99933.69;;;2.67;53.22
60427;BME280;46274;47.168;27.604;2023-02-03T15:22:26;99908.34;;;2.71;52.35
60427;BME280;46274;47.168;27.604;2023-02-03T15:29:02;99927.41;;;2.56;53.25
60427;BME280;46274;47.168;27.604;2023-02-03T15:35:16;99896.09;;;1.71;54.83
60427;BME280;46274;47.168;27.604;2023-02-03T15:41:24;99907.28;;;1.31;55.70
60427;BME280;46274;47.168;27.604;2023-02-03T15:47:31;99880.88;;;1.83;54.21
60427;BME280;46274;47.168;27.604;2023-02-03T15:53:47;99901.41;;;1.83;54.61
60427;BME280;46274;47.168;27.604;2023-02-03T16:00:28;99882.78;;;1.49;54.56
60427;BME280;46274;47.168;27.604;2023-02-03T16:06:38;99785.78;;;0.82;55.13
60427;BME280;46274;47.168;27.604;2023-02-03T16:13:25;99883.03;;;1.35;55.51
60427;BME280;46274;47.168;27.604;2023-02-03T16:19:41;99865.56;;;1.30;55.77
60427;BME280;46274;47.168;27.604;2023-02-03T16:26:18;99875.25;;;0.86;56.68
60427;BME280;46274;47.168;27.604;2023-02-03T16:32:28;99853.06;;;0.28;58.22
60427;BME280;46274;47.168;27.604;2023-02-03T16:38:59;99835.53;;;0.48;57.26
60427;BME280;46274;47.168;27.604;2023-02-03T16:46:26;99757.78;;;-0.39;58.75
60427;BME280;46274;47.168;27.604;2023-02-03T16:52:58;99849.78;;;-0.48;60.46
60427;BME280;46274;47.168;27.604;2023-02-03T16:59:33;99651.72;;;-0.92;58.58
60427;BME280;46274;47.168;27.604;2023-02-03T17:05:40;99841.56;;;-0.69;61.77
60427;BME280;46274;47.168;27.604;2023-02-03T17:11:42;99830.44;;;-0.02;59.33
60427;BME280;46274;47.168;27.604;2023-02-03T17:17:46;99722.53;;;-0.54;59.05
60427;BME280;46274;47.168;27.604;2023-02-03T17:23:54;99717.81;;;-0.98;59.90
60427;BME280;46274;47.168;27.604;2023-02-03T17:30:09;99806.41;;;-0.85;61.64
60427;BME280;46274;47.168;27.604;2023-02-03T17:36:19;99608.16;;;-2.25;63.10
60427;BME280;46274;47.168;27.604;2023-02-03T17:42:22;99801.84;;;-1.08;63.50
60427;BME280;46274;47.168;27.604;2023-02-03T17:48:41;99791.44;;;-1.12;63.67
60427;BME280;46274;47.168;27.604;2023-02-03T17:55:00;99785.59;;;-1.29;64.48
60427;BME280;46274;47.168;27.604;2023-02-03T18:01:19;99768.88;;;-1.06;63.67
60427;BME280;46274;47.168;27.604;2023-02-03T18:07:31;99755.72;;;-1.07;63.03
60427;BME280;46274;47.168;27.604;2023-02-03T18:13:42;99751.28;;;-1.33;64.36
60427;BME280;46274;47.168;27.604;2023-02-03T18:19:45;99674.63;;;-1.76;64.89
60427;BME280;46274;47.168;27.604;2023-02-03T18:25:57;99730.47;;;-1.51;65.54
60427;BME280;46274;47.168;27.604;2023-02-03T18:32:05;99728.59;;;-1.62;66.26
60427;BME280;46274;47.168;27.604;2023-02-03T18:38:10;99724.22;;;-1.76;66.97
60427;BME280;46274;47.168;27.604;2023-02-03T18:44:13;99708.06;;;-1.60;66.73
60427;BME280;46274;47.168;27.604;2023-02-03T18:50:15;99696.28;;;-1.82;67.04
60427;BME280;46274;47.168;27.604;2023-02-03T18:56:23;99671.66;;;-1.97;67.29
60427;BME280;46274;47.168;27.604;2023-02-03T19:02:28;99649.78;;;-2.00;67.07
60427;BME280;46274;47.168;27.604;2023-02-03T19:08:33;99641.28;;;-2.05;66.84
60427;BME280;46274;47.168;27.604;2023-02-03T19:14:41;99654.88;;;-1.97;67.32
60427;BME280;46274;47.168;27.604;2023-02-03T19:20:48;99624.84;;;-2.10;67.57
60427;BME280;46274;47.168;27.604;2023-02-03T19:26:53;99611.56;;;-2.10;67.61
60427;BME280;46274;47.168;27.604;2023-02-03T19:32:57;99620.25;;;-1.95;67.49
60427;BME280;46274;47.168;27.604;2023-02-03T19:39:06;99498.69;;;-2.66;67.46
60427;BME280;46274;47.168;27.604;2023-02-03T19:45:10;99607.72;;;-1.81;67.42
60427;BME280;46274;47.168;27.604;2023-02-03T19:51:15;99611.50;;;-1.72;66.92
60427;BME280;46274;47.168;27.604;2023-02-03T19:57:18;99579.66;;;-1.85;67.87
60427;BME280;46274;47.168;27.604;2023-02-03T20:03:24;99559.06;;;-1.94;67.73
60427;BME280;46274;47.168;27.604;2023-02-03T20:09:26;99591.78;;;-1.81;68.64
60427;BME280;46274;47.168;27.604;2023-02-03T20:15:28;99574.97;;;-1.81;69.01
60427;BME280;46274;47.168;27.604;2023-02-03T20:21:30;99571.78;;;-1.73;69.02
60427;BME280;46274;47.168;27.604;2023-02-03T20:27:33;99558.78;;;-1.65;68.30
60427;BME280;46274;47.168;27.604;2023-02-03T20:33:35;99561.66;;;-1.68;69.17
60427;BME280;46274;47.168;27.604;2023-02-03T20:39:37;99550.53;;;-1.73;69.89
60427;BME280;46274;47.168;27.604;2023-02-03T20:45:40;99540.03;;;-1.51;69.21
60427;BME280;46274;47.168;27.604;2023-02-03T20:51:42;99536.41;;;-1.50;69.78
60427;BME280;46274;47.168;27.604;2023-02-03T20:57:46;99531.41;;;-1.42;69.20
60427;BME280;46274;47.168;27.604;2023-02-03T21:03:52;99490.53;;;-1.52;69.31
60427;BME280;46274;47.168;27.604;2023-02-03T21:10:18;99498.47;;;-2.00;71.00
60427;BME280;46274;47.168;27.604;2023-02-03T21:16:24;99382.47;;;-2.11;68.91
60427;BME280;46274;47.168;27.604;2023-02-03T21:22:31;99513.81;;;-1.32;68.97
60427;BME280;46274;47.168;27.604;2023-02-03T21:28:33;99454.13;;;-1.87;70.19
60427;BME280;46274;47.168;27.604;2023-02-03T21:34:36;99483.28;;;-1.74;70.30
60427;BME280;46274;47.168;27.604;2023-02-03T21:40:38;99457.41;;;-1.59;69.99
60427;BME280;46274;47.168;27.604;2023-02-03T21:46:42;99450.41;;;-2.45;72.98
60427;BME280;46274;47.168;27.604;2023-02-03T21:52:44;99445.78;;;-1.69;70.33
60427;BME280;46274;47.168;27.604;2023-02-03T21:58:48;99411.84;;;-2.01;70.76
60427;BME280;46274;47.168;27.604;2023-02-03T22:04:52;99424.16;;;-2.00;71.68
60427;BME280;46274;47.168;27.604;2023-02-03T22:10:55;99464.88;;;-1.64;70.69
60427;BME280;46274;47.168;27.604;2023-02-03T22:16:56;99447.47;;;-1.68;71.08
60427;BME280;46274;47.168;27.604;2023-02-03T22:22:58;99411.53;;;-2.09;71.59
60427;BME280;46274;47.168;27.604;2023-02-03T22:29:01;99437.41;;;-2.00;71.94
60427;BME280;46274;47.168;27.604;2023-02-03T22:35:07;99447.75;;;-1.84;71.37
60427;BME280;46274;47.168;27.604;2023-02-03T22:41:13;99410.88;;;-2.00;71.71
60427;BME280;46274;47.168;27.604;2023-02-03T22:47:15;99329.28;;;-2.33;70.78
60427;BME280;46274;47.168;27.604;2023-02-03T22:53:20;99415.47;;;-1.78;70.47
60427;BME280;46274;47.168;27.604;2023-02-03T22:59:22;99403.28;;;-1.69;70.04
60427;BME280;46274;47.168;27.604;2023-02-03T23:05:25;99393.81;;;-1.85;70.05
60427;BME280;46274;47.168;27.604;2023-02-03T23:11:27;99383.50;;;-2.01;70.93
60427;BME280;46274;47.168;27.604;2023-02-03T23:17:30;99390.16;;;-1.95;70.18
60427;BME280;46274;47.168;27.604;2023-02-03T23:23:32;99207.81;;;-3.00;70.27
60427;BME280;46274;47.168;27.604;2023-02-03T23:29:35;99339.53;;;-2.40;71.78
60427;BME280;46274;47.168;27.604;2023-02-03T23:35:40;99262.47;;;-3.36;74.02
60427;BME280;46274;47.168;27.604;2023-02-03T23:41:50;99283.22;;;-2.56;71.09
60427;BME280;46274;47.168;27.604;2023-02-03T23:47:55;99316.25;;;-2.60;72.75
60427;BME280;46274;47.168;27.604;2023-02-03T23:53:58;99337.16;;;-2.32;71.82
